YPE weather

Peace River Airport
Peace River, Alberta, Canada

Public forecast

Using degrees Celsius for public forecast. Weather courtesy of forecast.io.

METAR (pilot weather report)

Retrieved 2019/05/21 14:00 UTC (26 minutes ago):

CYPE 211400Z 07008KT 15SM FEW100 FEW250 11/00 A2991 RMK AC2CI1 CI TR SLP139 DENSITY ALT 1900FT

TAF (pilot weather forecast)

Retrieved 2019/05/21 13:39 UTC (47 minutes ago):

TAF CYPE 211238Z 2113/2201 05005KT P6SM SKC FM211600 12012KT 6SM FU FEW012 TEMPO 2116/2201 21/2SM FU RMK NXT FCST BY 211900Z